Řízení letového provozu České republiky
Letiste: LKCV Aktualizace: 27.03.2017 12:06:05  UTC
 METAR LKCV 27.03. 12:00 ...
METAR LKCV 271200Z 06004KT 320V100 CAVOK 12/M03 Q1026 NOSIG=
 TAF LKCV 27.03. 11:00 ...
TAF LKCV 271100Z 2712/2812 VRB02KT CAVOK=